Terminal Aerodrome Forecast
Issued by NWS

Current Version | Previous Version | Graphics & Text | Print | Product List | Glossary On
Versions: 1 2 3 4 5 6 7 8 9 10 11 12 13 14 15 16 17 18 19 20 21 22
000
FTUS41 KILN 131743 AAB
TAFLCK
TAF AMD
KLCK 131743Z 1318/1418 02008KT P6SM BKN150
     FM140700 04005KT P6SM VCSH OVC060
     FM141100 04004KT 5SM BR VCSH SCT015 OVC025
     FM141300 VRB03KT P6SM OVC012=

USA.gov is the U.S. government's official web portal to all federal, state and local government web resources and services.